Time;durP1;ratioP1;P1;durP2;ratioP2;P2;SDS_P1;SDS_P2;PMS_P1;PMS_P2;Temp;Humidity;BMP_temperature;BMP_pressure;BME280_temperature;BME280_humidity;BME280_pressure;Samples;Min_cycle;Max_cycle;Signal;HPM_P1;HPM_P2
2023/12/17 00:00:05;;;;;;;;;;;;;;;;;;5071385;28;19916;-68
2023/12/17 00:02:31;;;;;;;;;;;;;;;;;;5075789;28;19995;-69
2023/12/17 00:04:57;;;;;;;;;;;;;;;;;;5086996;28;20382;-67
2023/12/17 00:07:22;;;;;;;;;;;;;;;;;;5077619;28;19909;-69
2023/12/17 00:09:48;;;;;;;;;;;;;;;;;;5086014;28;19970;-68
2023/12/17 00:12:14;;;;;;;;;;;;;;;;;;5095520;28;20002;-68
2023/12/17 00:14:40;;;;;;;;;;;;;;;;;;5094160;28;19953;-62
2023/12/17 00:17:06;;;;;;;;;;;;;;;;;;5091115;28;19937;-68
2023/12/17 00:19:32;;;;;;;;;;;;;;;;;;5094706;28;19959;-69
2023/12/17 00:21:58;;;;;;;;;;;;;;;;;;5094210;28;19950;-68
2023/12/17 00:24:24;;;;;;;;;;;;;;;;;;5090297;28;20373;-66
2023/12/17 00:26:50;;;;;;;;;;;;;;;;;;5075664;28;19926;-62
2023/12/17 00:29:16;;;;;;;;;;;;;;;;;;5079818;28;20016;-63
2023/12/17 00:31:41;;;;;;;;;;;;;;;;;;5091590;28;19923;-62
2023/12/17 00:34:07;;;;;;;;;;;;;;;;;;5076983;28;19996;-62
2023/12/17 00:36:33;;;;;;;;;;;;;;;;;;5075634;28;20390;-63
2023/12/17 00:38:59;;;;;;;;;;;;;;;;;;5075539;28;19940;-63
2023/12/17 00:41:25;;;;;;;;;;;;;;;;;;5082594;28;20350;-62
2023/12/17 00:43:51;;;;;;;;;;;;;;;;;;5087281;28;19919;-62
2023/12/17 00:46:17;;;;;;;;;;;;;;;;;;5086417;28;19913;-63
2023/12/17 00:48:43;;;;;;;;;;;;;;;;;;5075211;28;20417;-62
2023/12/17 00:51:09;;;;;;;;;;;;;;;;;;5074899;28;19917;-62
2023/12/17 00:53:35;;;;;;;;;;;;;;;;;;5074832;28;19912;-62
2023/12/17 00:56:02;;;;;;;;;;;;;;;;;;5079071;28;20268;-62
2023/12/17 00:58:28;;;;;;;;;;;;;;;;;;5093287;28;19916;-64
2023/12/17 01:00:54;;;;;;;;;;;;;;;;;;5078453;28;19922;-62
2023/12/17 01:03:20;;;;;;;;;;;;;;;;;;5094238;28;19914;-63
2023/12/17 01:05:46;;;;;;;;;;;;;;;;;;5092682;28;19912;-62
2023/12/17 01:08:11;;;;;;;;;;;;;;;;;;5077546;28;19979;-63
2023/12/17 01:10:37;;;;;;;;;;;;;;;;;;5074474;28;20007;-62
2023/12/17 01:13:04;;;;;;;;;;;;;;;;;;5073770;28;19912;-64
2023/12/17 01:15:29;;;;;;;;;;;;;;;;;;5075573;28;19936;-62
2023/12/17 01:17:55;;;;;;;;;;;;;;;;;;5086287;28;20373;-62
2023/12/17 01:20:21;;;;;;;;;;;;;;;;;;5077681;28;19963;-62
2023/12/17 01:22:47;;;;;;;;;;;;;;;;;;5085575;28;20265;-63
2023/12/17 01:25:13;;;;;;;;;;;;;;;;;;5089031;28;20391;-67
2023/12/17 01:27:39;;;;;;;;;;;;;;;;;;5074439;28;20007;-67
2023/12/17 01:30:05;;;;;;;;;;;;;;;;;;5078182;28;19959;-66
2023/12/17 01:32:31;;;;;;;;;;;;;;;;;;5094284;28;20425;-67
2023/12/17 01:34:57;;;;;;;;;;;;;;;;;;5093802;28;19912;-62
2023/12/17 01:37:23;;;;;;;;;;;;;;;;;;5094268;28;20311;-62
2023/12/17 01:39:49;;;;;;;;;;;;;;;;;;5085801;28;20006;-63
2023/12/17 01:42:14;;;;;;;;;;;;;;;;;;5091401;28;20301;-63
2023/12/17 01:44:41;;;;;;;;;;;;;;;;;;5091961;28;19943;-63
2023/12/17 01:47:07;;;;;;;;;;;;;;;;;;5076971;28;19919;-63
2023/12/17 01:49:33;;;;;;;;;;;;;;;;;;5089063;28;19948;-62
2023/12/17 01:51:59;;;;;;;;;;;;;;;;;;5089453;28;19920;-63
2023/12/17 01:54:25;;;;;;;;;;;;;;;;;;5082356;28;20015;-62
2023/12/17 01:56:51;;;;;;;;;;;;;;;;;;5085132;28;20422;-63
2023/12/17 01:59:17;;;;;;;;;;;;;;;;;;5089965;28;19916;-63
2023/12/17 02:01:42;;;;;;;;;;;;;;;;;;5092406;28;19912;-62
2023/12/17 02:04:08;;;;;;;;;;;;;;;;;;5093485;28;20420;-62
2023/12/17 02:06:34;;;;;;;;;;;;;;;;;;5093241;28;19919;-62
2023/12/17 02:09:00;;;;;;;;;;;;;;;;;;5087251;28;19923;-62
2023/12/17 02:11:26;;;;;;;;;;;;;;;;;;5073502;28;20325;-62
2023/12/17 02:13:52;;;;;;;;;;;;;;;;;;5073231;28;19916;-62
2023/12/17 02:16:18;;;;;;;;;;;;;;;;;;5087024;28;19935;-62
2023/12/17 02:18:44;;;;;;;;;;;;;;;;;;5081997;28;19950;-62
2023/12/17 02:21:10;;;;;;;;;;;;;;;;;;5082309;28;19920;-62
2023/12/17 02:23:35;;;;;;;;;;;;;;;;;;5073152;28;20349;-62
2023/12/17 02:26:03;;;;;;;;;;;;;;;;;;5087624;28;19916;-62
2023/12/17 02:28:29;;;;;;;;;;;;;;;;;;5088085;28;19916;-63
2023/12/17 02:30:55;;;;;;;;;;;;;;;;;;5091226;28;20374;-63
2023/12/17 02:33:21;;;;;;;;;;;;;;;;;;5084830;28;19920;-62
2023/12/17 02:35:47;;;;;;;;;;;;;;;;;;5084519;28;19954;-65
2023/12/17 02:38:13;;;;;;;;;;;;;;;;;;5085968;28;20383;-64
2023/12/17 02:40:39;;;;;;;;;;;;;;;;;;5091096;28;20303;-64
2023/12/17 02:43:05;;;;;;;;;;;;;;;;;;5086303;28;19963;-64
2023/12/17 02:45:31;;;;;;;;;;;;;;;;;;5076008;28;19934;-64
2023/12/17 02:47:57;;;;;;;;;;;;;;;;;;5079871;28;20380;-64
2023/12/17 02:50:23;;;;;;;;;;;;;;;;;;5080377;28;20011;-64
2023/12/17 02:52:48;;;;;;;;;;;;;;;;;;5090961;28;19912;-64
2023/12/17 02:55:14;;;;;;;;;;;;;;;;;;5085739;28;19955;-64
2023/12/17 02:57:40;;;;;;;;;;;;;;;;;;5086525;28;20273;-64
2023/12/17 03:00:07;;;;;;;;;;;;;;;;;;5090679;28;20038;-64
2023/12/17 03:02:33;;;;;;;;;;;;;;;;;;5091863;28;19912;-64
2023/12/17 03:04:59;;;;;;;;;;;;;;;;;;5090835;28;19963;-64
2023/12/17 03:07:25;;;;;;;;;;;;;;;;;;5092090;28;19944;-64
2023/12/17 03:09:54;;;;;;;;;;;;;;;;;;5082913;28;20354;-64
2023/12/17 03:12:20;;;;;;;;;;;;;;;;;;5072709;28;19913;-64
2023/12/17 03:14:46;;;;;;;;;;;;;;;;;;5077254;28;19919;-64
2023/12/17 03:17:12;;;;;;;;;;;;;;;;;;5082932;28;20325;-64
2023/12/17 03:19:37;;;;;;;;;;;;;;;;;;5077150;28;20003;-64
2023/12/17 03:22:03;;;;;;;;;;;;;;;;;;5085850;28;19918;-64
2023/12/17 03:24:29;;;;;;;;;;;;;;;;;;5078976;28;19971;-64
2023/12/17 03:26:55;;;;;;;;;;;;;;;;;;5085656;28;19920;-64
2023/12/17 03:29:21;;;;;;;;;;;;;;;;;;5091088;28;19955;-64
2023/12/17 03:31:47;;;;;;;;;;;;;;;;;;5086582;28;20295;-64
2023/12/17 03:34:13;;;;;;;;;;;;;;;;;;5076419;28;19912;-64
2023/12/17 03:36:39;;;;;;;;;;;;;;;;;;5071073;28;19913;-64
2023/12/17 03:39:05;;;;;;;;;;;;;;;;;;5088919;28;20374;-64
2023/12/17 03:41:31;;;;;;;;;;;;;;;;;;5085348;28;19923;-64
2023/12/17 03:43:57;;;;;;;;;;;;;;;;;;5094433;28;19912;-64
2023/12/17 03:46:23;;;;;;;;;;;;;;;;;;5087114;28;19962;-70
2023/12/17 03:48:49;;;;;;;;;;;;;;;;;;5095508;28;19920;-69
2023/12/17 03:51:15;;;;;;;;;;;;;;;;;;5080161;28;20376;-70
2023/12/17 03:53:41;;;;;;;;;;;;;;;;;;5096309;28;19912;-69
2023/12/17 03:56:06;;;;;;;;;;;;;;;;;;5095619;28;19961;-62
2023/12/17 03:58:32;;;;;;;;;;;;;;;;;;5096064;28;19946;-63
2023/12/17 04:00:58;;;;;;;;;;;;;;;;;;5091975;28;19912;-63
2023/12/17 04:03:24;;;;;;;;;;;;;;;;;;5095584;28;19916;-63
2023/12/17 04:05:50;;;;;;;;;;;;;;;;;;5081138;28;19913;-62
2023/12/17 04:08:16;;;;;;;;;;;;;;;;;;5079079;28;19951;-63
2023/12/17 04:10:42;;;;;;;;;;;;;;;;;;5095026;28;20465;-63
2023/12/17 04:13:08;;;;;;;;;;;;;;;;;;5095958;28;19908;-62
2023/12/17 04:15:34;;;;;;;;;;;;;;;;;;5088187;28;20296;-62
2023/12/17 04:17:59;;;;;;;;;;;;;;;;;;5075386;28;19920;-64
2023/12/17 04:20:25;;;;;;;;;;;;;;;;;;5085957;28;20077;-62
2023/12/17 04:22:51;;;;;;;;;;;;;;;;;;5095180;28;19913;-62
2023/12/17 04:25:17;;;;;;;;;;;;;;;;;;5094647;28;19912;-62
2023/12/17 04:27:43;;;;;;;;;;;;;;;;;;5095209;28;20380;-62
2023/12/17 04:30:10;;;;;;;;;;;;;;;;;;5088976;28;19974;-63
2023/12/17 04:32:36;;;;;;;;;;;;;;;;;;5079992;28;20025;-62
2023/12/17 04:35:03;;;;;;;;;;;;;;;;;;5076514;28;20296;-64
2023/12/17 04:37:29;;;;;;;;;;;;;;;;;;5089940;28;19916;-62
2023/12/17 04:39:55;;;;;;;;;;;;;;;;;;5074968;28;19909;-62
2023/12/17 04:42:21;;;;;;;;;;;;;;;;;;5079888;28;20530;-64
2023/12/17 04:44:47;;;;;;;;;;;;;;;;;;5087310;28;19912;-62
2023/12/17 04:47:13;;;;;;;;;;;;;;;;;;5084506;28;19999;-63
2023/12/17 04:49:38;;;;;;;;;;;;;;;;;;5077013;28;19951;-62
2023/12/17 04:52:04;;;;;;;;;;;;;;;;;;5078736;28;20364;-62
2023/12/17 04:54:30;;;;;;;;;;;;;;;;;;5078606;28;19999;-63
2023/12/17 04:56:56;;;;;;;;;;;;;;;;;;5083776;28;19908;-70
2023/12/17 04:59:22;;;;;;;;;;;;;;;;;;5087416;28;19969;-70
2023/12/17 05:01:48;;;;;;;;;;;;;;;;;;5094565;28;19996;-70
2023/12/17 05:04:14;;;;;;;;;;;;;;;;;;5081764;28;20046;-70
2023/12/17 05:06:40;;;;;;;;;;;;;;;;;;5082671;28;19965;-68
2023/12/17 05:09:06;;;;;;;;;;;;;;;;;;5089428;28;19959;-67
2023/12/17 05:11:32;;;;;;;;;;;;;;;;;;5091468;28;19940;-67
2023/12/17 05:13:57;;;;;;;;;;;;;;;;;;5093111;28;20397;-66
2023/12/17 05:16:23;;;;;;;;;;;;;;;;;;5080861;28;19916;-67
2023/12/17 05:18:49;;;;;;;;;;;;;;;;;;5085504;28;19934;-67
2023/12/17 05:21:15;;;;;;;;;;;;;;;;;;5083481;28;19912;-67
2023/12/17 05:23:41;;;;;;;;;;;;;;;;;;5084297;28;19947;-67
2023/12/17 05:26:07;;;;;;;;;;;;;;;;;;5093784;28;19919;-67
2023/12/17 05:28:33;;;;;;;;;;;;;;;;;;5085965;28;19920;-67
2023/12/17 05:30:59;;;;;;;;;;;;;;;;;;5079497;28;19956;-67
2023/12/17 05:33:25;;;;;;;;;;;;;;;;;;5089018;28;19959;-67
2023/12/17 05:35:51;;;;;;;;;;;;;;;;;;5093942;28;19918;-67
2023/12/17 05:38:18;;;;;;;;;;;;;;;;;;5087479;28;20403;-67
2023/12/17 05:40:44;;;;;;;;;;;;;;;;;;5093004;28;19916;-67
2023/12/17 05:43:10;;;;;;;;;;;;;;;;;;5092984;28;20324;-67
2023/12/17 05:45:36;;;;;;;;;;;;;;;;;;5093063;28;19916;-67
2023/12/17 05:48:02;;;;;;;;;;;;;;;;;;5082525;28;19917;-67
2023/12/17 05:50:27;;;;;;;;;;;;;;;;;;5088044;28;19948;-67
2023/12/17 05:52:53;;;;;;;;;;;;;;;;;;5085470;28;20333;-67
2023/12/17 05:55:20;;;;;;;;;;;;;;;;;;5085228;28;19991;-67
2023/12/17 05:57:49;;;;;;;;;;;;;;;;;;5092792;28;20283;-67
2023/12/17 06:00:15;;;;;;;;;;;;;;;;;;5084758;28;19920;-67
2023/12/17 06:02:41;;;;;;;;;;;;;;;;;;5077663;28;19940;-66
2023/12/17 06:05:07;;;;;;;;;;;;;;;;;;5086913;28;20664;-67
2023/12/17 06:07:33;;;;;;;;;;;;;;;;;;5093530;28;20003;-67
2023/12/17 06:09:59;;;;;;;;;;;;;;;;;;5090338;28;20030;-67
2023/12/17 06:12:25;;;;;;;;;;;;;;;;;;5089607;28;19947;-67
2023/12/17 06:14:51;;;;;;;;;;;;;;;;;;5092990;28;19918;-64
2023/12/17 06:17:17;;;;;;;;;;;;;;;;;;5087224;28;19912;-64
2023/12/17 06:19:44;;;;;;;;;;;;;;;;;;5087735;28;19916;-64
2023/12/17 06:22:11;;;;;;;;;;;;;;;;;;5091317;28;19912;-64
2023/12/17 06:24:37;;;;;;;;;;;;;;;;;;5092978;28;19916;-63
2023/12/17 06:27:03;;;;;;;;;;;;;;;;;;5075197;28;19920;-64
2023/12/17 06:29:29;;;;;;;;;;;;;;;;;;5090102;28;19924;-64
2023/12/17 06:31:55;;;;;;;;;;;;;;;;;;5077909;28;19913;-64
2023/12/17 06:34:21;;;;;;;;;;;;;;;;;;5085671;28;19920;-64
2023/12/17 06:36:47;;;;;;;;;;;;;;;;;;5090594;28;19915;-64
2023/12/17 06:39:13;;;;;;;;;;;;;;;;;;5077582;28;19916;-64
2023/12/17 06:41:39;;;;;;;;;;;;;;;;;;5085129;28;19920;-65
2023/12/17 06:44:05;;;;;;;;;;;;;;;;;;5087708;28;20295;-64
2023/12/17 06:46:31;;;;;;;;;;;;;;;;;;5091543;28;19940;-64
2023/12/17 06:48:57;;;;;;;;;;;;;;;;;;5080799;28;19917;-63
2023/12/17 06:51:23;;;;;;;;;;;;;;;;;;5085764;28;19912;-63
2023/12/17 06:53:49;;;;;;;;;;;;;;;;;;5090919;28;19927;-64
2023/12/17 06:56:15;;;;;;;;;;;;;;;;;;5076625;28;19955;-63
2023/12/17 06:58:41;;;;;;;;;;;;;;;;;;5080336;28;19912;-64
2023/12/17 07:01:07;;;;;;;;;;;;;;;;;;5083276;28;19908;-63
2023/12/17 07:03:33;;;;;;;;;;;;;;;;;;5090391;28;19927;-63
2023/12/17 07:05:59;;;;;;;;;;;;;;;;;;5078728;28;20356;-64
2023/12/17 07:08:25;;;;;;;;;;;;;;;;;;5091665;28;19962;-64
2023/12/17 07:10:51;;;;;;;;;;;;;;;;;;5090528;28;19958;-64
2023/12/17 07:13:17;;;;;;;;;;;;;;;;;;5087617;28;20002;-64
2023/12/17 07:15:43;;;;;;;;;;;;;;;;;;5084516;28;20303;-66
2023/12/17 07:18:09;;;;;;;;;;;;;;;;;;5083665;28;19908;-66
2023/12/17 07:20:35;;;;;;;;;;;;;;;;;;5088259;28;20044;-66
2023/12/17 07:23:01;;;;;;;;;;;;;;;;;;5090425;28;20381;-66
2023/12/17 07:25:27;;;;;;;;;;;;;;;;;;5087145;28;20361;-62
2023/12/17 07:27:54;;;;;;;;;;;;;;;;;;5029365;28;1696314;-62
2023/12/17 07:30:20;;;;;;;;;;;;;;;;;;5089654;28;20516;-62
2023/12/17 07:32:46;;;;;;;;;;;;;;;;;;5091775;28;19915;-63
2023/12/17 07:35:12;;;;;;;;;;;;;;;;;;5091154;28;20279;-62
2023/12/17 07:37:37;;;;;;;;;;;;;;;;;;5091576;28;19923;-64
2023/12/17 07:40:03;;;;;;;;;;;;;;;;;;5075761;28;19928;-63
2023/12/17 07:42:29;;;;;;;;;;;;;;;;;;5077256;28;20012;-62
2023/12/17 07:44:55;;;;;;;;;;;;;;;;;;5084415;28;19912;-62
2023/12/17 07:47:21;;;;;;;;;;;;;;;;;;5090262;28;19959;-62
2023/12/17 07:49:47;;;;;;;;;;;;;;;;;;5085286;28;20332;-63
2023/12/17 07:52:13;;;;;;;;;;;;;;;;;;5090556;28;19912;-63
2023/12/17 07:54:39;;;;;;;;;;;;;;;;;;5079747;28;19916;-63
2023/12/17 07:57:05;;;;;;;;;;;;;;;;;;5082712;28;20356;-63
2023/12/17 07:59:31;;;;;;;;;;;;;;;;;;5085155;28;19912;-62
2023/12/17 08:01:57;;;;;;;;;;;;;;;;;;5082684;28;19961;-63
2023/12/17 08:04:23;;;;;;;;;;;;;;;;;;5086203;28;20376;-63
2023/12/17 08:06:49;;;;;;;;;;;;;;;;;;5090331;28;19912;-63
2023/12/17 08:09:16;;;;;;;;;;;;;;;;;;5089143;28;19920;-64
2023/12/17 08:11:42;;;;;;;;;;;;;;;;;;5073761;28;19912;-63
2023/12/17 08:14:08;;;;;;;;;;;;;;;;;;5079977;28;20777;-63
2023/12/17 08:16:33;;;;;;;;;;;;;;;;;;5086624;28;19912;-63
2023/12/17 08:18:59;;;;;;;;;;;;;;;;;;5088384;28;19969;-62
2023/12/17 08:21:25;;;;;;;;;;;;;;;;;;5080263;28;19943;-62
2023/12/17 08:23:51;;;;;;;;;;;;;;;;;;5085696;28;20006;-63
2023/12/17 08:26:17;;;;;;;;;;;;;;;;;;5091010;28;19974;-67
2023/12/17 08:28:43;;;;;;;;;;;;;;;;;;5093347;28;20097;-68
2023/12/17 08:31:09;;;;;;;;;;;;;;;;;;5080983;28;19959;-68
2023/12/17 08:33:35;;;;;;;;;;;;;;;;;;5085182;28;19931;-68
2023/12/17 08:36:01;;;;;;;;;;;;;;;;;;5090454;28;19920;-65
2023/12/17 08:38:27;;;;;;;;;;;;;;;;;;5079931;28;19920;-64
2023/12/17 08:40:54;;;;;;;;;;;;;;;;;;5086803;28;20451;-64
2023/12/17 08:43:20;;;;;;;;;;;;;;;;;;5091969;28;20272;-64
2023/12/17 08:45:46;;;;;;;;;;;;;;;;;;5090753;28;19962;-64
2023/12/17 08:48:12;;;;;;;;;;;;;;;;;;5076430;28;19999;-64
2023/12/17 08:50:38;;;;;;;;;;;;;;;;;;5092568;28;19916;-64
2023/12/17 08:53:04;;;;;;;;;;;;;;;;;;5090280;28;19914;-64
2023/12/17 08:55:30;;;;;;;;;;;;;;;;;;5087329;28;20338;-64
2023/12/17 08:57:56;;;;;;;;;;;;;;;;;;5092810;28;19912;-63
2023/12/17 09:00:22;;;;;;;;;;;;;;;;;;5081731;28;19963;-64
2023/12/17 09:02:48;;;;;;;;;;;;;;;;;;5091454;28;19958;-64
2023/12/17 09:05:14;;;;;;;;;;;;;;;;;;5084501;28;19943;-64
2023/12/17 09:07:40;;;;;;;;;;;;;;;;;;5089495;28;19959;-64
2023/12/17 09:10:06;;;;;;;;;;;;;;;;;;5082587;28;20283;-64
2023/12/17 09:12:32;;;;;;;;;;;;;;;;;;5081774;28;20352;-64
2023/12/17 09:14:58;;;;;;;;;;;;;;;;;;5088239;28;19962;-64
2023/12/17 09:17:25;;;;;;;;;;;;;;;;;;5088077;28;19951;-64
2023/12/17 09:19:51;;;;;;;;;;;;;;;;;;5074073;28;19999;-64
2023/12/17 09:22:17;;;;;;;;;;;;;;;;;;5087094;28;19919;-64
2023/12/17 09:24:44;;;;;;;;;;;;;;;;;;5083729;28;20427;-64
2023/12/17 09:27:09;;;;;;;;;;;;;;;;;;5082493;28;19935;-63
2023/12/17 09:29:35;;;;;;;;;;;;;;;;;;5084724;28;19959;-63
2023/12/17 09:32:01;;;;;;;;;;;;;;;;;;5083425;28;20294;-64
2023/12/17 09:34:27;;;;;;;;;;;;;;;;;;5087117;28;19959;-64
2023/12/17 09:36:53;;;;;;;;;;;;;;;;;;5088991;28;20332;-68
2023/12/17 09:39:19;;;;;;;;;;;;;;;;;;5086934;28;19912;-67
2023/12/17 09:41:45;;;;;;;;;;;;;;;;;;5082115;28;19944;-68
2023/12/17 09:44:11;;;;;;;;;;;;;;;;;;5084438;28;19962;-65
2023/12/17 09:46:37;;;;;;;;;;;;;;;;;;5080214;28;19956;-63
2023/12/17 09:49:03;;;;;;;;;;;;;;;;;;5085377;28;19955;-63
2023/12/17 09:51:29;;;;;;;;;;;;;;;;;;5077626;28;19912;-63
2023/12/17 09:53:55;;;;;;;;;;;;;;;;;;5080540;28;19931;-62
2023/12/17 09:56:21;;;;;;;;;;;;;;;;;;5080454;28;20316;-63
2023/12/17 09:58:47;;;;;;;;;;;;;;;;;;5084501;28;20049;-62
2023/12/17 10:01:13;;;;;;;;;;;;;;;;;;5085981;28;20014;-63
2023/12/17 10:03:39;;;;;;;;;;;;;;;;;;5079382;28;19922;-63
2023/12/17 10:06:05;;;;;;;;;;;;;;;;;;5089479;28;19912;-64
2023/12/17 10:08:30;;;;;;;;;;;;;;;;;;5084622;28;20237;-63
2023/12/17 10:10:56;;;;;;;;;;;;;;;;;;5085506;28;19948;-62
2023/12/17 10:13:22;;;;;;;;;;;;;;;;;;5084507;28;19989;-62
2023/12/17 10:15:48;;;;;;;;;;;;;;;;;;5084078;28;20668;-64
2023/12/17 10:18:14;;;;;;;;;;;;;;;;;;5078796;28;19985;-63
2023/12/17 10:20:40;;;;;;;;;;;;;;;;;;5084113;28;20022;-63
2023/12/17 10:23:06;;;;;;;;;;;;;;;;;;5079483;28;19912;-63
2023/12/17 10:25:32;;;;;;;;;;;;;;;;;;5083982;28;19970;-63
2023/12/17 10:27:58;;;;;;;;;;;;;;;;;;5086215;28;19935;-63
2023/12/17 10:30:24;;;;;;;;;;;;;;;;;;5088725;28;20383;-62
2023/12/17 10:32:50;;;;;;;;;;;;;;;;;;5090577;28;19917;-63
2023/12/17 10:35:16;;;;;;;;;;;;;;;;;;5084900;28;20045;-63
2023/12/17 10:37:42;;;;;;;;;;;;;;;;;;5084889;28;20339;-63
2023/12/17 10:40:11;;;;;;;;;;;;;;;;;;5081398;28;19951;-63
2023/12/17 10:42:37;;;;;;;;;;;;;;;;;;5090691;28;19918;-63
2023/12/17 10:45:03;;;;;;;;;;;;;;;;;;5087327;28;19916;-64
2023/12/17 10:47:28;;;;;;;;;;;;;;;;;;5078971;28;19919;-64
2023/12/17 10:49:54;;;;;;;;;;;;;;;;;;5079701;28;19967;-64
2023/12/17 10:52:20;;;;;;;;;;;;;;;;;;5084878;28;19912;-64
2023/12/17 10:54:49;;;;;;;;;;;;;;;;;;5079527;28;19919;-64
2023/12/17 10:57:15;;;;;;;;;;;;;;;;;;5086507;28;19911;-63
2023/12/17 10:59:41;;;;;;;;;;;;;;;;;;5082367;28;19947;-63
2023/12/17 11:02:07;;;;;;;;;;;;;;;;;;5096235;28;19912;-63
2023/12/17 11:04:33;;;;;;;;;;;;;;;;;;5089457;28;19956;-63
2023/12/17 11:06:59;;;;;;;;;;;;;;;;;;5089416;28;19916;-63
2023/12/17 11:09:25;;;;;;;;;;;;;;;;;;5085444;28;19962;-63
2023/12/17 11:11:51;;;;;;;;;;;;;;;;;;5084540;28;19912;-63
2023/12/17 11:14:17;;;;;;;;;;;;;;;;;;5088842;28;19956;-63
2023/12/17 11:16:43;;;;;;;;;;;;;;;;;;5080020;28;19955;-63
2023/12/17 11:19:09;;;;;;;;;;;;;;;;;;5086101;28;19962;-62
2023/12/17 11:21:35;;;;;;;;;;;;;;;;;;5088252;28;19951;-63
2023/12/17 11:24:01;;;;;;;;;;;;;;;;;;5077520;28;19918;-63
2023/12/17 11:26:27;;;;;;;;;;;;;;;;;;5087509;28;19982;-63
2023/12/17 11:28:53;;;;;;;;;;;;;;;;;;5085849;28;19924;-62
2023/12/17 11:31:18;;;;;;;;;;;;;;;;;;5081181;28;19916;-63
2023/12/17 11:33:44;;;;;;;;;;;;;;;;;;5087937;28;19952;-63
2023/12/17 11:36:10;;;;;;;;;;;;;;;;;;5084967;28;20386;-63
2023/12/17 11:38:36;;;;;;;;;;;;;;;;;;5085820;28;20011;-63
2023/12/17 11:41:03;;;;;;;;;;;;;;;;;;5085036;28;19924;-65
2023/12/17 11:43:29;;;;;;;;;;;;;;;;;;5085251;28;19966;-64
2023/12/17 11:45:56;;;;;;;;;;;;;;;;;;5085844;28;19924;-63
2023/12/17 11:48:21;;;;;;;;;;;;;;;;;;5083887;28;19954;-63
2023/12/17 11:50:51;;;;;;;;;;;;;;;;;;5086409;28;19955;-63
2023/12/17 11:53:17;;;;;;;;;;;;;;;;;;5081212;28;19920;-63
2023/12/17 11:55:43;;;;;;;;;;;;;;;;;;5085671;28;20012;-65
2023/12/17 11:58:09;;;;;;;;;;;;;;;;;;5089264;28;19912;-63
2023/12/17 12:00:34;;;;;;;;;;;;;;;;;;5079987;28;20387;-63
2023/12/17 12:03:00;;;;;;;;;;;;;;;;;;5087145;28;19916;-63
2023/12/17 12:05:26;;;;;;;;;;;;;;;;;;5094375;28;20320;-67
2023/12/17 12:07:52;;;;;;;;;;;;;;;;;;5092214;28;19920;-67
2023/12/17 12:10:18;;;;;;;;;;;;;;;;;;5092106;28;19959;-68
2023/12/17 12:12:44;;;;;;;;;;;;;;;;;;5092589;28;19915;-68
2023/12/17 12:15:10;;;;;;;;;;;;;;;;;;5089494;28;19923;-67
2023/12/17 12:17:38;;;;;;;;;;;;;;;;;;5085207;28;19966;-67
2023/12/17 12:20:03;;;;;;;;;;;;;;;;;;5088514;28;19916;-68
2023/12/17 12:22:29;;;;;;;;;;;;;;;;;;5082930;28;19951;-67
2023/12/17 12:24:55;;;;;;;;;;;;;;;;;;5087158;28;19912;-68
2023/12/17 12:27:21;;;;;;;;;;;;;;;;;;5089675;28;20002;-67
2023/12/17 12:29:48;;;;;;;;;;;;;;;;;;5084899;28;20359;-66
2023/12/17 12:32:15;;;;;;;;;;;;;;;;;;5090899;28;19943;-68
2023/12/17 12:34:45;;;;;;;;;;;;;;;;;;5089744;28;19912;-68
2023/12/17 12:37:10;;;;;;;;;;;;;;;;;;5091561;28;20436;-66
2023/12/17 12:39:36;;;;;;;;;;;;;;;;;;5089134;28;20016;-68
2023/12/17 12:42:02;;;;;;;;;;;;;;;;;;5087923;28;19916;-67
2023/12/17 12:44:28;;;;;;;;;;;;;;;;;;5092012;28;19993;-66
2023/12/17 12:46:54;;;;;;;;;;;;;;;;;;5087062;28;20321;-68
2023/12/17 12:49:20;;;;;;;;;;;;;;;;;;5088551;28;19962;-67
2023/12/17 12:51:47;;;;;;;;;;;;;;;;;;5082570;28;20001;-67
2023/12/17 12:54:13;;;;;;;;;;;;;;;;;;5087372;28;19916;-68
2023/12/17 12:56:39;;;;;;;;;;;;;;;;;;5088292;28;19912;-68
2023/12/17 12:59:04;;;;;;;;;;;;;;;;;;5086410;28;20012;-67
2023/12/17 13:01:30;;;;;;;;;;;;;;;;;;5088525;28;20372;-68
2023/12/17 13:03:58;;;;;;;;;;;;;;;;;;5089132;28;19932;-67
2023/12/17 13:06:24;;;;;;;;;;;;;;;;;;5081353;28;20032;-68
2023/12/17 13:08:50;;;;;;;;;;;;;;;;;;5079688;28;20357;-67
2023/12/17 13:11:16;;;;;;;;;;;;;;;;;;5079276;28;19962;-69
2023/12/17 13:13:42;;;;;;;;;;;;;;;;;;5085599;28;19916;-66
2023/12/17 13:16:08;;;;;;;;;;;;;;;;;;5087061;28;19912;-68
2023/12/17 13:18:34;;;;;;;;;;;;;;;;;;5086049;28;19956;-67
2023/12/17 13:21:00;;;;;;;;;;;;;;;;;;5088757;28;20258;-67
2023/12/17 13:23:26;;;;;;;;;;;;;;;;;;5087750;28;19912;-67
2023/12/17 13:25:51;;;;;;;;;;;;;;;;;;5084034;28;19998;-67
2023/12/17 13:28:17;;;;;;;;;;;;;;;;;;5083952;28;20455;-68
2023/12/17 13:30:43;;;;;;;;;;;;;;;;;;5087214;28;21215;-67
2023/12/17 13:33:09;;;;;;;;;;;;;;;;;;5090443;28;19937;-67
2023/12/17 13:35:35;;;;;;;;;;;;;;;;;;5092440;28;19960;-66
2023/12/17 13:38:01;;;;;;;;;;;;;;;;;;5083338;28;20098;-67
2023/12/17 13:40:29;;;;;;;;;;;;;;;;;;5087794;28;19959;-68
2023/12/17 13:42:55;;;;;;;;;;;;;;;;;;5088200;28;20368;-67
2023/12/17 13:45:20;;;;;;;;;;;;;;;;;;5091754;28;19912;-67
2023/12/17 13:47:46;;;;;;;;;;;;;;;;;;5088879;28;19919;-67
2023/12/17 13:50:12;;;;;;;;;;;;;;;;;;5084055;28;20398;-67
2023/12/17 13:52:38;;;;;;;;;;;;;;;;;;5091080;28;20393;-69
2023/12/17 13:55:07;;;;;;;;;;;;;;;;;;5083713;28;19983;-68
2023/12/17 13:57:33;;;;;;;;;;;;;;;;;;5085641;28;20039;-64
2023/12/17 13:59:59;;;;;;;;;;;;;;;;;;5085921;28;20058;-67
2023/12/17 14:02:26;;;;;;;;;;;;;;;;;;5084634;28;20402;-65
2023/12/17 14:04:52;;;;;;;;;;;;;;;;;;5089941;28;19912;-67
2023/12/17 14:07:18;;;;;;;;;;;;;;;;;;5084312;28;20560;-66
2023/12/17 14:09:43;;;;;;;;;;;;;;;;;;5080071;28;19924;-65
2023/12/17 14:12:12;;;;;;;;;;;;;;;;;;5074242;28;19913;-66
2023/12/17 14:14:38;;;;;;;;;;;;;;;;;;5090913;28;19912;-66
2023/12/17 14:17:04;;;;;;;;;;;;;;;;;;5084496;28;20618;-65
2023/12/17 14:19:34;;;;;;;;;;;;;;;;;;5080325;28;19923;-66
2023/12/17 14:22:00;;;;;;;;;;;;;;;;;;5091114;28;19912;-66
2023/12/17 14:24:26;;;;;;;;;;;;;;;;;;5080901;28;19951;-66
2023/12/17 14:26:52;;;;;;;;;;;;;;;;;;5084472;28;20044;-67
2023/12/17 14:29:18;;;;;;;;;;;;;;;;;;5092030;28;19912;-68
2023/12/17 14:31:44;;;;;;;;;;;;;;;;;;5085503;28;20009;-68
2023/12/17 14:34:10;;;;;;;;;;;;;;;;;;5092184;28;20419;-68
2023/12/17 14:36:38;;;;;;;;;;;;;;;;;;5087547;28;19955;-67
2023/12/17 14:39:04;;;;;;;;;;;;;;;;;;5091802;28;19923;-68
2023/12/17 14:41:30;;;;;;;;;;;;;;;;;;5090832;28;20372;-68
2023/12/17 14:43:56;;;;;;;;;;;;;;;;;;5083240;28;19955;-66
2023/12/17 14:46:22;;;;;;;;;;;;;;;;;;5090424;28;19912;-68
2023/12/17 14:48:48;;;;;;;;;;;;;;;;;;5092141;28;20431;-69
2023/12/17 14:51:14;;;;;;;;;;;;;;;;;;5087187;28;19920;-68
2023/12/17 14:53:40;;;;;;;;;;;;;;;;;;5081828;28;19912;-68
2023/12/17 14:56:06;;;;;;;;;;;;;;;;;;5092458;28;19973;-68
2023/12/17 14:58:32;;;;;;;;;;;;;;;;;;5092494;28;20009;-68
2023/12/17 15:00:58;;;;;;;;;;;;;;;;;;5086266;28;19970;-69
2023/12/17 15:03:24;;;;;;;;;;;;;;;;;;5087109;28;20336;-68
2023/12/17 15:05:50;;;;;;;;;;;;;;;;;;5092729;28;19908;-68
2023/12/17 15:08:16;;;;;;;;;;;;;;;;;;5088642;28;19916;-66
2023/12/17 15:10:42;;;;;;;;;;;;;;;;;;5076171;28;19959;-68
2023/12/17 15:13:07;;;;;;;;;;;;;;;;;;5087906;28;19912;-68
2023/12/17 15:15:34;;;;;;;;;;;;;;;;;;5080322;28;19934;-68
2023/12/17 15:18:00;;;;;;;;;;;;;;;;;;5085571;28;20283;-68
2023/12/17 15:20:27;;;;;;;;;;;;;;;;;;5079398;28;20379;-67
2023/12/17 15:22:53;;;;;;;;;;;;;;;;;;5081548;28;20315;-68
2023/12/17 15:25:19;;;;;;;;;;;;;;;;;;5082841;28;19923;-64
2023/12/17 15:27:45;;;;;;;;;;;;;;;;;;5080206;28;20001;-63
2023/12/17 15:30:12;;;;;;;;;;;;;;;;;;5082478;28;19920;-63
2023/12/17 15:32:37;;;;;;;;;;;;;;;;;;5080901;28;20280;-63
2023/12/17 15:35:03;;;;;;;;;;;;;;;;;;5080538;28;19963;-66
2023/12/17 15:37:29;;;;;;;;;;;;;;;;;;5084871;28;19939;-67
2023/12/17 15:39:55;;;;;;;;;;;;;;;;;;5083787;28;19922;-68
2023/12/17 15:42:21;;;;;;;;;;;;;;;;;;5085038;28;19944;-68
2023/12/17 15:44:47;;;;;;;;;;;;;;;;;;5085195;28;19916;-68
2023/12/17 15:47:13;;;;;;;;;;;;;;;;;;5087277;28;19915;-68
2023/12/17 15:49:39;;;;;;;;;;;;;;;;;;5089049;28;20009;-68
2023/12/17 15:52:05;;;;;;;;;;;;;;;;;;5085112;28;19962;-66
2023/12/17 15:54:31;;;;;;;;;;;;;;;;;;5081985;28;19920;-68
2023/12/17 15:56:57;;;;;;;;;;;;;;;;;;5085989;28;20041;-68
2023/12/17 15:59:23;;;;;;;;;;;;;;;;;;5084333;28;20023;-66
2023/12/17 16:01:49;;;;;;;;;;;;;;;;;;5084430;28;19912;-68
2023/12/17 16:04:16;;;;;;;;;;;;;;;;;;5091855;28;20007;-66
2023/12/17 16:06:42;;;;;;;;;;;;;;;;;;5092101;28;19958;-67
2023/12/17 16:09:08;;;;;;;;;;;;;;;;;;5085798;28;20384;-67
2023/12/17 16:11:35;;;;;;;;;;;;;;;;;;5085257;28;19919;-68
2023/12/17 16:14:00;;;;;;;;;;;;;;;;;;5088458;28;19916;-68
2023/12/17 16:16:26;;;;;;;;;;;;;;;;;;5085630;28;19920;-68
2023/12/17 16:18:52;;;;;;;;;;;;;;;;;;5089517;28;20432;-67
2023/12/17 16:21:18;;;;;;;;;;;;;;;;;;5088282;28;20066;-68
2023/12/17 16:23:44;;;;;;;;;;;;;;;;;;5075822;28;19912;-69
2023/12/17 16:26:10;;;;;;;;;;;;;;;;;;5082248;28;20429;-68
2023/12/17 16:28:36;;;;;;;;;;;;;;;;;;5084715;28;19954;-68
2023/12/17 16:31:02;;;;;;;;;;;;;;;;;;5091998;28;19926;-68
2023/12/17 16:33:28;;;;;;;;;;;;;;;;;;5087098;28;19912;-68
2023/12/17 16:35:54;;;;;;;;;;;;;;;;;;5088045;28;20333;-64